Time;durP1;ratioP1;P1;durP2;ratioP2;P2;SDS_P1;SDS_P2;PMS_P1;PMS_P2;Temp;Humidity;BMP_temperature;BMP_pressure;BME280_temperature;BME280_humidity;BME280_pressure;Samples;Min_cycle;Max_cycle;Signal;HPM_P1;HPM_P2
2023/08/31 00:00:41;;;;;;;5.43;1.83;;;;;;;;;;4972826;28;93093;-82
2023/08/31 00:03:09;;;;;;;7.22;2.00;;;;;;;;;;4970970;28;95062;-82
2023/08/31 00:05:41;;;;;;;5.72;1.80;;;;;;;;;;4974129;28;95238;-81
2023/08/31 00:08:08;;;;;;;6.82;2.20;;;;;;;;;;4993156;28;94677;-82
2023/08/31 00:10:35;;;;;;;4.68;1.33;;;;;;;;;;4989537;28;94369;-81
2023/08/31 00:13:02;;;;;;;5.57;2.00;;;;;;;;;;4971727;28;93435;-81
2023/08/31 00:15:29;;;;;;;5.35;1.63;;;;;;;;;;4955112;28;92454;-81
2023/08/31 00:17:56;;;;;;;5.45;1.75;;;;;;;;;;4975671;28;93786;-81
2023/08/31 00:20:22;;;;;;;6.18;2.00;;;;;;;;;;4990308;28;92315;-81
2023/08/31 00:22:49;;;;;;;6.00;1.92;;;;;;;;;;4989723;28;93164;-81
2023/08/31 00:25:15;;;;;;;6.20;2.33;;;;;;;;;;4989330;28;94052;-81
2023/08/31 00:27:42;;;;;;;4.60;1.77;;;;;;;;;;4987634;28;95445;-81
2023/08/31 00:30:11;;;;;;;6.88;2.08;;;;;;;;;;4973940;28;92515;-81
2023/08/31 00:32:39;;;;;;;5.15;1.77;;;;;;;;;;4954409;28;95345;-81
2023/08/31 00:35:05;;;;;;;6.30;2.10;;;;;;;;;;4970888;28;93714;-81
2023/08/31 00:37:33;;;;;;;6.05;1.90;;;;;;;;;;4987918;28;93312;-81
2023/08/31 00:40:00;;;;;;;6.63;2.40;;;;;;;;;;4954616;28;95001;-82
2023/08/31 00:42:29;;;;;;;5.22;2.05;;;;;;;;;;4971570;28;93036;-82
2023/08/31 00:44:55;;;;;;;6.35;2.35;;;;;;;;;;4971440;28;93835;-82
2023/08/31 00:47:22;;;;;;;5.07;1.52;;;;;;;;;;4989332;28;92996;-82
2023/08/31 00:49:49;;;;;;;4.18;1.58;;;;;;;;;;4994058;28;92470;-82
2023/08/31 00:52:16;;;;;;;5.68;1.63;;;;;;;;;;4978276;28;96224;-82
2023/08/31 00:54:43;;;;;;;3.38;1.80;;;;;;;;;;5001883;28;92359;-82
2023/08/31 00:57:10;;;;;;;8.43;2.88;;;;;;;;;;4993014;28;92763;-83
2023/08/31 00:59:36;;;;;;;5.97;2.00;;;;;;;;;;4992736;28;93519;-83
2023/08/31 01:02:13;;;;;;;7.85;2.70;;;;;;;;;;4974952;28;92545;-83
2023/08/31 01:04:49;;;;;;;6.25;2.40;;;;;;;;;;4992860;28;92712;-83
2023/08/31 01:07:30;;;;;;;8.52;3.40;;;;;;;;;;4974155;28;95947;-83
2023/08/31 01:10:16;;;;;;;7.10;2.95;;;;;;;;;;4974566;28;92223;-83
2023/08/31 01:13:02;;;;;;;6.72;2.85;;;;;;;;;;4995810;28;92433;-82
2023/08/31 01:15:31;;;;;;;5.15;1.73;;;;;;;;;;4992103;28;92406;-82
2023/08/31 01:18:00;;;;;;;7.53;2.70;;;;;;;;;;4990526;28;94842;-82
2023/08/31 01:20:32;;;;;;;9.55;3.13;;;;;;;;;;4991989;28;93061;-81
2023/08/31 01:23:03;;;;;;;8.93;3.42;;;;;;;;;;4974297;28;92428;-80
2023/08/31 01:25:30;;;;;;;7.25;2.50;;;;;;;;;;4992122;28;94763;-80
2023/08/31 01:27:58;;;;;;;7.95;2.90;;;;;;;;;;4992508;28;94108;-81
2023/08/31 01:30:25;;;;;;;9.18;3.80;;;;;;;;;;4992067;28;92890;-81
2023/08/31 01:32:52;;;;;;;11.52;4.32;;;;;;;;;;4992423;28;92843;-81
2023/08/31 01:35:19;;;;;;;9.02;4.18;;;;;;;;;;4995554;28;92461;-81
2023/08/31 01:37:51;;;;;;;6.88;2.85;;;;;;;;;;4992534;28;92978;-81
2023/08/31 01:40:23;;;;;;;6.75;2.40;;;;;;;;;;4992091;28;93014;-81
2023/08/31 01:42:50;;;;;;;14.57;4.60;;;;;;;;;;4991033;28;94793;-81
2023/08/31 01:45:20;;;;;;;10.35;4.15;;;;;;;;;;4973840;28;97962;-81
2023/08/31 01:47:48;;;;;;;9.85;3.40;;;;;;;;;;4992039;28;93018;-81
2023/08/31 01:50:14;;;;;;;10.63;4.05;;;;;;;;;;4991868;28;92415;-82
2023/08/31 01:52:41;;;;;;;11.68;4.28;;;;;;;;;;4969864;28;92856;-82
2023/08/31 01:55:07;;;;;;;7.38;2.75;;;;;;;;;;4960726;28;95863;-82
2023/08/31 01:57:34;;;;;;;10.02;4.22;;;;;;;;;;4974111;28;92458;-82
2023/08/31 02:00:07;;;;;;;7.30;2.58;;;;;;;;;;4973668;28;94960;-82
2023/08/31 02:02:39;;;;;;;8.27;3.10;;;;;;;;;;4989444;28;92480;-83
2023/08/31 02:05:06;;;;;;;10.88;4.50;;;;;;;;;;4973983;28;92847;-82
2023/08/31 02:07:33;;;;;;;10.43;4.10;;;;;;;;;;4989765;28;95819;-82
2023/08/31 02:10:01;;;;;;;7.68;3.20;;;;;;;;;;4973797;28;94738;-82
2023/08/31 02:12:27;;;;;;;6.13;2.10;;;;;;;;;;4991839;28;93380;-82
2023/08/31 02:14:54;;;;;;;6.95;2.00;;;;;;;;;;4993018;28;93212;-82
2023/08/31 02:17:20;;;;;;;5.90;1.85;;;;;;;;;;4992229;28;92424;-82
2023/08/31 02:19:47;;;;;;;8.70;1.98;;;;;;;;;;4976801;28;95749;-81
2023/08/31 02:22:14;;;;;;;4.78;1.80;;;;;;;;;;4991464;28;92531;-82
2023/08/31 02:24:40;;;;;;;4.95;1.90;;;;;;;;;;4973152;28;94903;-82
2023/08/31 02:27:07;;;;;;;5.88;1.90;;;;;;;;;;4991760;28;93059;-83
2023/08/31 02:29:33;;;;;;;4.38;1.52;;;;;;;;;;4973044;28;92518;-83
2023/08/31 02:32:03;;;;;;;4.40;1.70;;;;;;;;;;4958280;28;95425;-82
2023/08/31 02:34:30;;;;;;;5.97;1.70;;;;;;;;;;4972718;28;94716;-81
2023/08/31 02:36:57;;;;;;;8.10;2.95;;;;;;;;;;4991123;28;92461;-82
2023/08/31 02:39:23;;;;;;;5.50;2.33;;;;;;;;;;4994461;28;92408;-82
2023/08/31 02:41:50;;;;;;;5.57;1.75;;;;;;;;;;4991517;28;92441;-82
2023/08/31 02:44:17;;;;;;;4.80;1.70;;;;;;;;;;4973832;28;96055;-82
2023/08/31 02:46:43;;;;;;;8.82;3.17;;;;;;;;;;4973854;28;94304;-83
2023/08/31 02:49:11;;;;;;;5.72;2.22;;;;;;;;;;4975155;28;92313;-83
2023/08/31 02:51:37;;;;;;;7.55;2.17;;;;;;;;;;4979331;28;96229;-83
2023/08/31 02:54:04;;;;;;;8.05;2.83;;;;;;;;;;4985124;28;93611;-82
2023/08/31 02:56:31;;;;;;;5.28;2.05;;;;;;;;;;4986993;28;94829;-81
2023/08/31 02:58:57;;;;;;;6.55;1.77;;;;;;;;;;4985754;28;97745;-82
2023/08/31 03:01:24;;;;;;;5.80;1.80;;;;;;;;;;5007703;28;92359;-81
2023/08/31 03:03:52;;;;;;;4.93;2.00;;;;;;;;;;4984353;28;93685;-82
2023/08/31 03:06:20;;;;;;;6.90;1.90;;;;;;;;;;5003209;28;92812;-82
2023/08/31 03:08:46;;;;;;;5.63;1.80;;;;;;;;;;4986531;28;93063;-81
2023/08/31 03:11:16;;;;;;;5.35;1.92;;;;;;;;;;4970683;28;94605;-82
2023/08/31 03:13:42;;;;;;;4.07;1.58;;;;;;;;;;4963811;28;93911;-81
2023/08/31 03:16:10;;;;;;;4.80;1.60;;;;;;;;;;4976849;28;92932;-81
2023/08/31 03:18:37;;;;;;;6.22;1.95;;;;;;;;;;4975368;28;92988;-82
2023/08/31 03:21:04;;;;;;;5.30;1.75;;;;;;;;;;4975589;28;98354;-82
2023/08/31 03:23:30;;;;;;;6.40;1.95;;;;;;;;;;4978402;28;92527;-81
2023/08/31 03:25:57;;;;;;;6.05;2.20;;;;;;;;;;4991387;28;93722;-82
2023/08/31 03:28:26;;;;;;;5.45;2.40;;;;;;;;;;4972041;28;92643;-82
2023/08/31 03:30:56;;;;;;;5.13;1.60;;;;;;;;;;4990424;28;92859;-82
2023/08/31 03:33:23;;;;;;;4.63;1.50;;;;;;;;;;4971871;28;95931;-82
2023/08/31 03:35:50;;;;;;;5.30;1.40;;;;;;;;;;4990117;28;92687;-82
2023/08/31 03:38:17;;;;;;;5.68;1.30;;;;;;;;;;4972666;28;96418;-81
2023/08/31 03:40:52;;;;;;;4.95;1.40;;;;;;;;;;4971229;28;95726;-81
2023/08/31 03:43:18;;;;;;;3.85;1.40;;;;;;;;;;4990452;28;92457;-81
2023/08/31 03:45:45;;;;;;;7.18;1.50;;;;;;;;;;4959376;28;95214;-82
2023/08/31 03:48:11;;;;;;;4.60;1.45;;;;;;;;;;4990731;28;92814;-81
2023/08/31 03:50:39;;;;;;;;;;;;;;;;;;4958411;28;95719;-81
2023/08/31 03:53:05;;;;;;;4.93;1.80;;;;;;;;;;4991483;28;104232;-81
2023/08/31 03:55:32;;;;;;;5.38;1.48;;;;;;;;;;4956352;28;93041;-82
2023/08/31 03:57:58;;;;;;;4.38;1.30;;;;;;;;;;4958522;28;95653;-81
2023/08/31 04:00:25;;;;;;;3.50;1.52;;;;;;;;;;4971020;28;94195;-81
2023/08/31 04:02:53;;;;;;;4.75;1.30;;;;;;;;;;4990303;28;91746;-82
2023/08/31 04:05:22;;;;;;;3.40;1.17;;;;;;;;;;4971835;28;93281;-82
2023/08/31 04:07:49;;;;;;;4.10;1.25;;;;;;;;;;4974722;28;93059;-82
2023/08/31 04:10:16;;;;;;;4.07;1.20;;;;;;;;;;4970113;28;95219;-82
2023/08/31 04:12:43;;;;;;;4.68;1.30;;;;;;;;;;4971748;28;95941;-81
2023/08/31 04:15:10;;;;;;;2.97;0.98;;;;;;;;;;4989642;28;92942;-81
2023/08/31 04:17:36;;;;;;;3.85;1.10;;;;;;;;;;4970520;28;95348;-81
2023/08/31 04:20:05;;;;;;;3.28;1.30;;;;;;;;;;4971000;28;94594;-81
2023/08/31 04:22:32;;;;;;;4.10;1.30;;;;;;;;;;4989993;28;92432;-81
2023/08/31 04:24:58;;;;;;;5.90;1.38;;;;;;;;;;4989736;28;92884;-82
2023/08/31 04:27:25;;;;;;;7.57;1.88;;;;;;;;;;4990521;28;92801;-81
2023/08/31 04:29:51;;;;;;;6.15;2.35;;;;;;;;;;4992815;28;92379;-81
2023/08/31 04:32:18;;;;;;;8.02;2.92;;;;;;;;;;4990406;28;93082;-80
2023/08/31 04:34:44;;;;;;;7.03;3.00;;;;;;;;;;4969340;28;95025;-80
2023/08/31 04:37:11;;;;;;;7.85;3.33;;;;;;;;;;4989463;28;95136;-80
2023/08/31 04:39:37;;;;;;;8.82;4.00;;;;;;;;;;4989343;28;93174;-81
2023/08/31 04:42:04;;;;;;;8.73;4.10;;;;;;;;;;4989963;28;92480;-81
2023/08/31 04:44:30;;;;;;;8.60;3.72;;;;;;;;;;4989560;28;92693;-82
2023/08/31 04:46:57;;;;;;;10.60;5.55;;;;;;;;;;4971942;28;92991;-81
2023/08/31 04:49:23;;;;;;;9.45;5.03;;;;;;;;;;4992661;28;92822;-82
2023/08/31 04:51:53;;;;;;;8.75;3.88;;;;;;;;;;4989907;28;92121;-81
2023/08/31 04:54:19;;;;;;;8.80;2.85;;;;;;;;;;4957754;28;92530;-82
2023/08/31 04:56:46;;;;;;;9.25;4.63;;;;;;;;;;4971803;28;92510;-81
2023/08/31 04:59:12;;;;;;;9.73;4.70;;;;;;;;;;4987492;28;95551;-81
2023/08/31 05:01:39;;;;;;;8.85;3.78;;;;;;;;;;4989234;28;92525;-82
2023/08/31 05:04:06;;;;;;;5.40;2.22;;;;;;;;;;4971289;28;94367;-82
2023/08/31 05:06:32;;;;;;;7.45;2.70;;;;;;;;;;4970830;28;93139;-82
2023/08/31 05:09:00;;;;;;;6.63;2.58;;;;;;;;;;4989377;28;92505;-82
2023/08/31 05:11:26;;;;;;;;;;;;;;;;;;4992475;28;92802;-81
2023/08/31 05:13:53;;;;;;;10.07;4.53;;;;;;;;;;4990359;28;94453;-81
2023/08/31 05:16:19;;;;;;;11.52;5.97;;;;;;;;;;4990025;28;93052;-81
2023/08/31 05:18:48;;;;;;;11.55;6.07;;;;;;;;;;4979538;28;93279;-81
2023/08/31 05:21:14;;;;;;;9.13;4.40;;;;;;;;;;4984254;28;92556;-80
2023/08/31 05:23:41;;;;;;;12.02;5.53;;;;;;;;;;4987612;28;95071;-80
2023/08/31 05:26:07;;;;;;;10.95;6.07;;;;;;;;;;4970721;28;93939;-81
2023/08/31 05:28:34;;;;;;;11.35;6.05;;;;;;;;;;4989331;28;92699;-82
2023/08/31 05:31:01;;;;;;;8.80;4.80;;;;;;;;;;4988610;28;92924;-81
2023/08/31 05:33:28;;;;;;;8.82;3.42;;;;;;;;;;4973470;28;95572;-80
2023/08/31 05:35:55;;;;;;;9.05;2.75;;;;;;;;;;4972707;28;92831;-81
2023/08/31 05:38:23;;;;;;;8.10;3.20;;;;;;;;;;4982944;28;93070;-80
2023/08/31 05:40:49;;;;;;;;;;;;;;;;;;4993052;28;92110;-81
2023/08/31 05:43:16;;;;;;;6.97;2.83;;;;;;;;;;4994379;28;92968;-80
2023/08/31 05:45:42;;;;;;;7.30;3.03;;;;;;;;;;4973871;28;93292;-81
2023/08/31 05:48:09;;;;;;;7.85;3.15;;;;;;;;;;4989943;28;95083;-81
2023/08/31 05:50:36;;;;;;;7.82;2.90;;;;;;;;;;4991250;28;95009;-80
2023/08/31 05:53:04;;;;;;;8.07;3.10;;;;;;;;;;4991862;28;93304;-81
2023/08/31 05:55:31;;;;;;;;;;;;;;;;;;4995066;28;92689;-80
2023/08/31 05:57:58;;;;;;;11.63;3.63;;;;;;;;;;4978390;28;108881;-79
2023/08/31 06:00:24;;;;;;;7.85;2.85;;;;;;;;;;4991369;28;92497;-79
2023/08/31 06:02:51;;;;;;;9.43;2.97;;;;;;;;;;4991316;28;92774;-79
2023/08/31 06:05:18;;;;;;;7.95;2.63;;;;;;;;;;4992032;28;93018;-79
2023/08/31 06:07:45;;;;;;;8.23;2.40;;;;;;;;;;4991565;28;92824;-79
2023/08/31 06:10:11;;;;;;;6.18;2.10;;;;;;;;;;4991302;28;92484;-79
2023/08/31 06:12:38;;;;;;;6.93;2.10;;;;;;;;;;4989638;28;95791;-79
2023/08/31 06:15:05;;;;;;;5.28;1.67;;;;;;;;;;4990921;28;92807;-79
2023/08/31 06:17:31;;;;;;;4.80;1.50;;;;;;;;;;4976099;28;92682;-79
2023/08/31 06:19:58;;;;;;;5.32;1.45;;;;;;;;;;4971904;28;93137;-80
2023/08/31 06:22:25;;;;;;;6.50;1.60;;;;;;;;;;4972713;28;93346;-79
2023/08/31 06:24:51;;;;;;;5.50;1.70;;;;;;;;;;4972640;28;93365;-79
2023/08/31 06:27:18;;;;;;;4.38;1.50;;;;;;;;;;4981813;28;92741;-80
2023/08/31 06:29:44;;;;;;;4.15;1.45;;;;;;;;;;4952923;28;94141;-79
2023/08/31 06:32:11;;;;;;;6.78;1.58;;;;;;;;;;4977982;28;93462;-80
2023/08/31 06:34:38;;;;;;;2.65;1.30;;;;;;;;;;4991107;28;92970;-79
2023/08/31 06:37:05;;;;;;;4.93;1.50;;;;;;;;;;4989423;28;95681;-80
2023/08/31 06:39:32;;;;;;;5.90;1.42;;;;;;;;;;4994717;28;93563;-80
2023/08/31 06:41:59;;;;;;;2.95;1.20;;;;;;;;;;4972684;28;94305;-80
2023/08/31 06:44:30;;;;;;;6.22;1.60;;;;;;;;;;4990584;28;94069;-80
2023/08/31 06:46:57;;;;;;;4.13;1.50;;;;;;;;;;4989326;28;92399;-80
2023/08/31 06:49:24;;;;;;;2.50;1.15;;;;;;;;;;4972561;28;93305;-80
2023/08/31 06:51:50;;;;;;;3.85;1.23;;;;;;;;;;4990530;28;93137;-81
2023/08/31 06:54:17;;;;;;;4.30;1.30;;;;;;;;;;4990972;28;91795;-80
2023/08/31 06:56:47;;;;;;;5.78;1.55;;;;;;;;;;4964387;28;93962;-81
2023/08/31 06:59:14;;;;;;;6.35;1.50;;;;;;;;;;4973705;28;93369;-81
2023/08/31 07:01:40;;;;;;;3.58;1.40;;;;;;;;;;4980107;28;94838;-81
2023/08/31 07:04:07;;;;;;;4.70;1.40;;;;;;;;;;4974149;28;93124;-81
2023/08/31 07:06:34;;;;;;;3.15;1.40;;;;;;;;;;4954887;28;92569;-80
2023/08/31 07:09:01;;;;;;;3.88;1.45;;;;;;;;;;4991013;28;93039;-80
2023/08/31 07:11:28;;;;;;;4.60;1.30;;;;;;;;;;4987290;28;94586;-81
2023/08/31 07:13:54;;;;;;;4.70;1.50;;;;;;;;;;4970279;28;92615;-80
2023/08/31 07:16:22;;;;;;;3.67;1.50;;;;;;;;;;4970447;28;92402;-80
2023/08/31 07:18:49;;;;;;;5.00;1.50;;;;;;;;;;4952763;28;95716;-81
2023/08/31 07:21:15;;;;;;;4.57;1.40;;;;;;;;;;4967488;28;92602;-81
2023/08/31 07:23:42;;;;;;;3.05;1.40;;;;;;;;;;4990760;28;93111;-81
2023/08/31 07:26:09;;;;;;;4.05;1.30;;;;;;;;;;4988468;28;94960;-80
2023/08/31 07:28:35;;;;;;;3.35;1.23;;;;;;;;;;4990258;28;94005;-80
2023/08/31 07:31:03;;;;;;;4.25;1.50;;;;;;;;;;4989562;28;93132;-80
2023/08/31 07:33:31;;;;;;;3.22;1.35;;;;;;;;;;4989892;28;92800;-80
2023/08/31 07:35:58;;;;;;;3.65;1.40;;;;;;;;;;4989374;28;95009;-81
2023/08/31 07:38:27;;;;;;;4.72;1.30;;;;;;;;;;4990064;28;93129;-81
2023/08/31 07:40:53;;;;;;;4.97;1.55;;;;;;;;;;4989943;28;92558;-80
2023/08/31 07:43:20;;;;;;;4.78;1.35;;;;;;;;;;4994034;28;92749;-80
2023/08/31 07:45:47;;;;;;;4.90;1.50;;;;;;;;;;4989550;28;92433;-80
2023/08/31 07:48:14;;;;;;;4.00;1.42;;;;;;;;;;4972355;28;92968;-81
2023/08/31 07:50:41;;;;;;;4.18;1.40;;;;;;;;;;4987992;28;95478;-81
2023/08/31 07:53:08;;;;;;;5.10;1.42;;;;;;;;;;4990260;28;92909;-81
2023/08/31 07:55:35;;;;;;;4.65;1.35;;;;;;;;;;4991643;28;92703;-81
2023/08/31 07:58:02;;;;;;;3.53;1.35;;;;;;;;;;4966095;28;95072;-81
2023/08/31 08:00:29;;;;;;;2.28;1.30;;;;;;;;;;4973955;28;92526;-81
2023/08/31 08:02:55;;;;;;;4.65;1.40;;;;;;;;;;4983378;28;92707;-81
2023/08/31 08:05:22;;;;;;;4.18;1.40;;;;;;;;;;4992659;28;93297;-79
2023/08/31 08:07:49;;;;;;;2.72;1.40;;;;;;;;;;4972518;28;93398;-82
2023/08/31 08:10:15;;;;;;;3.53;1.30;;;;;;;;;;4985387;28;93500;-80
2023/08/31 08:12:46;;;;;;;3.97;1.50;;;;;;;;;;4978915;28;92882;-80
2023/08/31 08:15:13;;;;;;;3.63;1.40;;;;;;;;;;4983532;28;95660;-80
2023/08/31 08:17:39;;;;;;;4.70;1.58;;;;;;;;;;4986825;28;93172;-80
2023/08/31 08:20:06;;;;;;;3.95;1.50;;;;;;;;;;4954635;28;92421;-80
2023/08/31 08:22:33;;;;;;;3.03;1.33;;;;;;;;;;4968952;28;92562;-80
2023/08/31 08:25:00;;;;;;;4.25;1.30;;;;;;;;;;4986423;28;94417;-80
2023/08/31 08:27:26;;;;;;;3.10;1.33;;;;;;;;;;4992414;28;92396;-80
2023/08/31 08:29:53;;;;;;;3.35;1.40;;;;;;;;;;4970948;28;93691;-80
2023/08/31 08:32:23;;;;;;;3.20;1.30;;;;;;;;;;4989979;28;92127;-80
2023/08/31 08:34:50;;;;;;;3.30;1.25;;;;;;;;;;4988669;28;92975;-80
2023/08/31 08:37:17;;;;;;;4.40;1.40;;;;;;;;;;4989123;28;94630;-80
2023/08/31 08:39:47;;;;;;;2.60;1.10;;;;;;;;;;4967757;28;95264;-80
2023/08/31 08:42:15;;;;;;;4.18;1.70;;;;;;;;;;4950751;28;99388;-81
2023/08/31 08:44:42;;;;;;;3.35;1.33;;;;;;;;;;4986681;28;93399;-81
2023/08/31 08:47:09;;;;;;;4.72;1.50;;;;;;;;;;4967299;28;92745;-81
2023/08/31 08:49:36;;;;;;;;;;;;;;;;;;4975141;28;92646;-82
2023/08/31 08:52:03;;;;;;;3.38;1.45;;;;;;;;;;4954143;28;105329;-82
2023/08/31 08:54:29;;;;;;;4.13;1.42;;;;;;;;;;4957407;28;95895;-82
2023/08/31 08:56:56;;;;;;;4.63;1.55;;;;;;;;;;4983675;28;92695;-82
2023/08/31 08:59:23;;;;;;;3.03;1.40;;;;;;;;;;4988740;28;93167;-81
2023/08/31 09:01:50;;;;;;;4.10;1.50;;;;;;;;;;4971828;28;92569;-81
2023/08/31 09:04:17;;;;;;;3.85;1.40;;;;;;;;;;4984810;28;95981;-82
2023/08/31 09:06:46;;;;;;;5.78;1.40;;;;;;;;;;4978377;28;92448;-82
2023/08/31 09:09:13;;;;;;;4.30;1.40;;;;;;;;;;4980023;28;93464;-81
2023/08/31 09:11:39;;;;;;;5.20;1.50;;;;;;;;;;4954604;28;92539;-80
2023/08/31 09:14:16;;;;;;;2.55;1.25;;;;;;;;;;4979918;28;93088;-79
2023/08/31 09:16:49;;;;;;;3.50;1.33;;;;;;;;;;4987154;28;92965;-80
2023/08/31 09:19:20;;;;;;;5.30;1.45;;;;;;;;;;4989341;28;92527;-79
2023/08/31 09:21:47;;;;;;;3.40;1.30;;;;;;;;;;4981420;28;92947;-80
2023/08/31 09:24:14;;;;;;;4.60;1.25;;;;;;;;;;4972934;28;95926;-79
2023/08/31 09:26:45;;;;;;;5.00;1.30;;;;;;;;;;4975888;28;93056;-80
2023/08/31 09:29:12;;;;;;;5.65;1.50;;;;;;;;;;4988100;28;95199;-80
2023/08/31 09:31:41;;;;;;;3.78;1.40;;;;;;;;;;4976355;28;93074;-80
2023/08/31 09:34:08;;;;;;;4.32;1.52;;;;;;;;;;4971322;28;95815;-80
2023/08/31 09:36:36;;;;;;;4.80;1.80;;;;;;;;;;4976274;28;93731;-80
2023/08/31 09:39:02;;;;;;;4.70;1.45;;;;;;;;;;4978723;28;92545;-81
2023/08/31 09:41:29;;;;;;;3.85;1.40;;;;;;;;;;4973679;28;95909;-80
2023/08/31 09:43:56;;;;;;;4.28;1.70;;;;;;;;;;4982784;28;93229;-80
2023/08/31 09:46:23;;;;;;;4.45;1.33;;;;;;;;;;4984070;28;91762;-80
2023/08/31 09:48:50;;;;;;;4.88;1.50;;;;;;;;;;4965946;28;94832;-80
2023/08/31 09:51:22;;;;;;;4.10;1.40;;;;;;;;;;4971714;28;94233;-81
2023/08/31 09:53:49;;;;;;;5.07;1.50;;;;;;;;;;4973082;28;94866;-81
2023/08/31 09:56:18;;;;;;;3.17;1.30;;;;;;;;;;4987873;28;93666;-81
2023/08/31 09:58:45;;;;;;;7.43;1.48;;;;;;;;;;4991670;28;92589;-82
2023/08/31 10:01:12;;;;;;;4.18;1.48;;;;;;;;;;4991714;28;92576;-81
2023/08/31 10:03:53;;;;;;;5.55;1.55;;;;;;;;;;4975863;28;93667;-81
2023/08/31 10:06:21;;;;;;;4.85;1.30;;;;;;;;;;4961777;28;92565;-81
2023/08/31 10:08:48;;;;;;;4.63;1.40;;;;;;;;;;4987355;28;92888;-82
2023/08/31 10:11:15;;;;;;;5.57;1.20;;;;;;;;;;4972949;28;95313;-82
2023/08/31 10:13:42;;;;;;;;;;;;;;;;;;4974476;28;92817;-80
2023/08/31 10:16:09;;;;;;;4.15;1.13;;;;;;;;;;4991232;28;92752;-81
2023/08/31 10:18:36;;;;;;;3.42;1.00;;;;;;;;;;4992072;28;95394;-80
2023/08/31 10:21:03;;;;;;;3.85;1.20;;;;;;;;;;4992663;28;95175;-81
2023/08/31 10:23:30;;;;;;;3.47;1.20;;;;;;;;;;4969979;28;93194;-80
2023/08/31 10:25:56;;;;;;;3.75;1.00;;;;;;;;;;4978190;28;92686;-80
2023/08/31 10:28:24;;;;;;;4.07;1.23;;;;;;;;;;4999991;28;93115;-80
2023/08/31 10:30:50;;;;;;;;;;;;;;;;;;4998305;28;93742;-80
2023/08/31 10:33:17;;;;;;;3.10;1.10;;;;;;;;;;4968361;28;110031;-81
2023/08/31 10:35:50;;;;;;;2.50;1.00;;;;;;;;;;4999553;28;92994;-79
2023/08/31 10:38:26;;;;;;;2.38;1.00;;;;;;;;;;5000734;28;93613;-81
2023/08/31 10:41:20;;;;;;;3.40;0.98;;;;;;;;;;4981136;28;92491;-82
2023/08/31 10:43:50;;;;;;;2.80;1.00;;;;;;;;;;4991225;28;95545;-82
2023/08/31 10:46:24;;;;;;;2.55;0.80;;;;;;;;;;4994535;28;92468;-82
2023/08/31 10:48:57;;;;;;;3.50;0.95;;;;;;;;;;4990738;28;92954;-81
2023/08/31 10:51:29;;;;;;;2.75;0.82;;;;;;;;;;4994121;28;93157;-81
2023/08/31 10:54:06;;;;;;;6.07;1.15;;;;;;;;;;4977247;28;92507;-81
2023/08/31 10:56:33;;;;;;;4.07;1.00;;;;;;;;;;4993489;28;92524;-82
2023/08/31 10:59:01;;;;;;;4.20;0.90;;;;;;;;;;4994145;28;93277;-83
2023/08/31 11:01:46;;;;;;;3.67;1.00;;;;;;;;;;4981626;28;92129;-82
2023/08/31 11:04:13;;;;;;;2.00;0.90;;;;;;;;;;4994372;28;92876;-83
2023/08/31 11:06:39;;;;;;;4.55;1.20;;;;;;;;;;4993178;28;92714;-82
2023/08/31 11:09:14;;;;;;;2.85;1.00;;;;;;;;;;4994421;28;95246;-83
2023/08/31 11:11:41;;;;;;;5.88;1.00;;;;;;;;;;4991390;28;93146;-83
2023/08/31 11:14:08;;;;;;;4.03;1.10;;;;;;;;;;4990312;28;92878;-83
2023/08/31 11:16:37;;;;;;;2.85;0.80;;;;;;;;;;4990737;28;92588;-81
2023/08/31 11:19:04;;;;;;;4.30;0.90;;;;;;;;;;4990868;28;92535;-83
2023/08/31 11:21:31;;;;;;;3.90;0.85;;;;;;;;;;4970386;28;92524;-82
2023/08/31 11:23:58;;;;;;;3.10;0.95;;;;;;;;;;4968679;28;93058;-82
2023/08/31 11:26:26;;;;;;;3.90;0.90;;;;;;;;;;4971336;28;91757;-82
2023/08/31 11:28:55;;;;;;;1.50;0.70;;;;;;;;;;4972892;28;93195;-83
2023/08/31 11:31:25;;;;;;;3.50;1.00;;;;;;;;;;4969337;28;93122;-83
2023/08/31 11:33:54;;;;;;;1.92;0.90;;;;;;;;;;4950070;28;95054;-83
2023/08/31 11:36:21;;;;;;;4.65;0.90;;;;;;;;;;4969976;28;96612;-83
2023/08/31 11:38:48;;;;;;;3.45;1.10;;;;;;;;;;4969261;28;93645;-82
2023/08/31 11:41:15;;;;;;;3.10;1.00;;;;;;;;;;4982879;28;92696;-83
2023/08/31 11:43:41;;;;;;;3.28;0.93;;;;;;;;;;4992651;28;94011;-83
2023/08/31 11:46:08;;;;;;;2.50;1.15;;;;;;;;;;4989945;28;92513;-83
2023/08/31 11:48:35;;;;;;;2.72;1.10;;;;;;;;;;4990283;28;92576;-83
2023/08/31 11:51:01;;;;;;;2.55;1.00;;;;;;;;;;4990867;28;93676;-82
2023/08/31 11:53:29;;;;;;;3.45;1.00;;;;;;;;;;4979914;28;92793;-83
2023/08/31 11:55:56;;;;;;;3.00;0.93;;;;;;;;;;4952496;28;93471;-83
2023/08/31 11:58:24;;;;;;;2.58;1.00;;;;;;;;;;4979339;28;96301;-81
2023/08/31 12:00:57;;;;;;;4.32;0.82;;;;;;;;;;4989722;28;92495;-83
2023/08/31 12:03:24;;;;;;;3.00;0.85;;;;;;;;;;4956332;28;94289;-82
2023/08/31 12:06:10;;;;;;;3.38;0.90;;;;;;;;;;4978245;28;93252;-83
2023/08/31 12:08:36;;;;;;;3.00;0.80;;;;;;;;;;4991631;28;92451;-83
2023/08/31 12:11:06;;;;;;;1.45;0.70;;;;;;;;;;4980220;28;92510;-82
2023/08/31 12:13:32;;;;;;;1.75;0.70;;;;;;;;;;4970470;28;92989;-83
2023/08/31 12:16:01;;;;;;;3.15;0.80;;;;;;;;;;4970841;28;92991;-82
2023/08/31 12:18:34;;;;;;;2.78;0.88;;;;;;;;;;4969632;28;93549;-82
2023/08/31 12:21:00;;;;;;;1.83;0.82;;;;;;;;;;4979790;28;92780;-82
2023/08/31 12:23:27;;;;;;;5.30;0.90;;;;;;;;;;4969879;28;96020;-82
2023/08/31 12:25:54;;;;;;;5.20;0.93;;;;;;;;;;4959385;28;96882;-81
2023/08/31 12:28:21;;;;;;;2.13;0.80;;;;;;;;;;4961684;28;92446;-82
2023/08/31 12:30:52;;;;;;;3.78;1.00;;;;;;;;;;4970993;28;93072;-83
2023/08/31 12:33:19;;;;;;;3.70;1.00;;;;;;;;;;4989980;28;92806;-83
2023/08/31 12:35:47;;;;;;;2.40;0.82;;;;;;;;;;4989678;28;93170;-83
2023/08/31 12:38:14;;;;;;;2.38;0.82;;;;;;;;;;4992562;28;93665;-83
2023/08/31 12:40:40;;;;;;;2.35;0.80;;;;;;;;;;4979958;28;92121;-83
2023/08/31 12:43:07;;;;;;;3.10;1.10;;;;;;;;;;4972693;28;92879;-84
2023/08/31 12:45:33;;;;;;;3.22;0.95;;;;;;;;;;4988406;28;93679;-83
2023/08/31 12:48:00;;;;;;;2.58;0.88;;;;;;;;;;4991935;28;94823;-83
2023/08/31 12:50:27;;;;;;;2.55;0.90;;;;;;;;;;4998005;28;93926;-82
2023/08/31 12:52:53;;;;;;;2.90;0.98;;;;;;;;;;4990187;28;92575;-84
2023/08/31 12:55:20;;;;;;;5.07;0.93;;;;;;;;;;4985537;28;93291;-83
2023/08/31 12:57:47;;;;;;;2.50;0.90;;;;;;;;;;4990806;28;92465;-83
2023/08/31 13:00:17;;;;;;;3.35;1.10;;;;;;;;;;4954179;28;92823;-85
2023/08/31 13:02:44;;;;;;;2.33;0.90;;;;;;;;;;4971090;28;95773;-86
2023/08/31 13:05:11;;;;;;;2.35;0.93;;;;;;;;;;4990762;28;92320;-85
2023/08/31 13:07:38;;;;;;;3.22;1.00;;;;;;;;;;4972540;28;92630;-86
2023/08/31 13:10:05;;;;;;;3.65;1.13;;;;;;;;;;4994487;28;94091;-86
2023/08/31 13:12:32;;;;;;;3.08;1.02;;;;;;;;;;4994598;28;94881;-85
2023/08/31 13:14:59;;;;;;;3.15;1.00;;;;;;;;;;4962652;28;95716;-85
2023/08/31 13:17:28;;;;;;;;;;;;;;;;;;4994426;28;95107;-83
2023/08/31 13:19:57;;;;;;;2.63;0.90;;;;;;;;;;4954373;28;94105;-84
2023/08/31 13:22:24;;;;;;;3.42;1.00;;;;;;;;;;4952380;28;96342;-85
2023/08/31 13:24:50;;;;;;;1.73;0.85;;;;;;;;;;4949645;28;93408;-84
2023/08/31 13:27:17;;;;;;;2.45;1.00;;;;;;;;;;4949214;28;92674;-84
2023/08/31 13:29:44;;;;;;;4.38;1.00;;;;;;;;;;4950441;28;92152;-85
2023/08/31 13:32:10;;;;;;;3.63;1.00;;;;;;;;;;4952318;28;93088;-87
2023/08/31 13:34:37;;;;;;;3.65;0.95;;;;;;;;;;4950524;28;93393;-84
2023/08/31 13:37:04;;;;;;;2.53;1.10;;;;;;;;;;4942129;28;95525;-85
2023/08/31 13:39:31;;;;;;;2.80;0.93;;;;;;;;;;4932465;28;92413;-85
2023/08/31 13:41:57;;;;;;;4.32;1.00;;;;;;;;;;4949344;28;93406;-85
2023/08/31 13:44:25;;;;;;;4.25;0.98;;;;;;;;;;4946822;28;96056;-85
2023/08/31 13:46:52;;;;;;;2.20;0.90;;;;;;;;;;4948987;28;92567;-84
2023/08/31 13:49:18;;;;;;;4.18;1.00;;;;;;;;;;4929506;28;93946;-84
2023/08/31 13:51:45;;;;;;;2.17;0.88;;;;;;;;;;4929330;28;93444;-85
2023/08/31 13:54:12;;;;;;;3.17;0.90;;;;;;;;;;4949515;28;91946;-84
2023/08/31 13:56:38;;;;;;;4.15;1.00;;;;;;;;;;4945601;28;93678;-83
2023/08/31 13:59:05;;;;;;;2.58;0.80;;;;;;;;;;4952425;28;92535;-84
2023/08/31 14:01:31;;;;;;;4.60;1.00;;;;;;;;;;4938403;28;94964;-84
2023/08/31 14:03:58;;;;;;;3.67;1.10;;;;;;;;;;4948876;28;93053;-85
2023/08/31 14:06:25;;;;;;;3.78;0.98;;;;;;;;;;4947691;28;92759;-84
2023/08/31 14:08:52;;;;;;;5.70;1.05;;;;;;;;;;4951134;28;92724;-83
2023/08/31 14:11:19;;;;;;;7.35;1.38;;;;;;;;;;4946146;28;92835;-83
2023/08/31 14:13:46;;;;;;;12.57;1.30;;;;;;;;;;4952119;28;92546;-83
2023/08/31 14:16:13;;;;;;;7.85;1.30;;;;;;;;;;4952278;28;92698;-82
2023/08/31 14:18:39;;;;;;;5.57;1.13;;;;;;;;;;4949404;28;91956;-81
2023/08/31 14:21:06;;;;;;;13.95;1.48;;;;;;;;;;4982092;28;92645;-82
2023/08/31 14:23:33;;;;;;;;;;;;;;;;;;4973278;28;96311;-82
2023/08/31 14:26:03;;;;;;;11.63;1.40;;;;;;;;;;4982911;28;94880;-82
2023/08/31 14:28:29;;;;;;;12.77;1.45;;;;;;;;;;4966102;28;95281;-82
2023/08/31 14:30:56;;;;;;;13.18;1.45;;;;;;;;;;4991712;28;92963;-82
2023/08/31 14:33:22;;;;;;;16.88;1.85;;;;;;;;;;4992545;28;92843;-83
2023/08/31 14:35:53;;;;;;;7.15;1.30;;;;;;;;;;4973187;28;95566;-82
2023/08/31 14:38:23;;;;;;;9.27;1.27;;;;;;;;;;4976832;28;94961;-82
2023/08/31 14:40:51;;;;;;;9.90;1.25;;;;;;;;;;4991363;28;95045;-83
2023/08/31 14:43:17;;;;;;;7.90;1.38;;;;;;;;;;4969021;28;93742;-83
2023/08/31 14:45:44;;;;;;;7.10;1.30;;;;;;;;;;4990857;28;92431;-84
2023/08/31 14:48:11;;;;;;;9.55;1.40;;;;;;;;;;4982908;28;95563;-92